Time;durP1;ratioP1;P1;durP2;ratioP2;P2;SDS_P1;SDS_P2;PMS_P1;PMS_P2;Temp;Humidity;BMP_temperature;BMP_pressure;BME280_temperature;BME280_humidity;BME280_pressure;Samples;Min_cycle;Max_cycle;Signal;HPM_P1;HPM_P2
2021/01/22 00:01:26;;;;;;;63.25;27.35;;;;;;;-4.54;58.50;99321.75;5050161;28;20460;-72
2021/01/22 00:03:52;;;;;;;66.97;29.45;;;;;;;-4.36;57.93;99356.13;5049984;28;20120;-72
2021/01/22 00:06:17;;;;;;;64.70;28.52;;;;;;;-4.45;58.29;99333.72;5048815;28;20591;-72
2021/01/22 00:08:43;;;;;;;62.33;27.50;;;;;;;-4.39;58.54;99341.41;5049836;28;20128;-73
2021/01/22 00:11:10;;;;;;;62.35;28.40;;;;;;;-4.41;57.94;99342.31;5049324;28;20033;-74
2021/01/22 00:13:35;;;;;;;61.65;29.13;;;;;;;-4.45;58.38;99340.69;5049894;28;20068;-74
2021/01/22 00:16:01;;;;;;;65.05;29.35;;;;;;;-4.47;58.86;99336.38;5050079;28;20118;-73
2021/01/22 00:18:26;;;;;;;64.55;29.65;;;;;;;-4.54;58.95;99323.50;5050034;28;20091;-74
2021/01/22 00:20:51;;;;;;;67.80;30.27;;;;;;;-4.49;58.55;99327.72;5049472;28;20029;-74
2021/01/22 00:23:18;;;;;;;59.28;29.77;;;;;;;-4.52;59.19;99322.56;5050235;28;20047;-71
2021/01/22 00:25:43;;;;;;;64.05;29.13;;;;;;;-4.45;58.96;99328.50;5050189;28;20032;-75
2021/01/22 00:28:14;;;;;;;69.63;29.85;;;;;;;-5.15;58.77;99212.78;5049788;28;20067;-74
2021/01/22 00:30:40;;;;;;;65.15;29.92;;;;;;;-4.43;59.42;99331.06;5049482;28;20049;-73
2021/01/22 00:33:05;;;;;;;65.72;29.17;;;;;;;-4.39;59.00;99324.84;5049335;28;20404;-73
2021/01/22 00:35:31;;;;;;;68.05;31.02;;;;;;;-4.39;59.42;99333.56;5053170;28;20044;-60
2021/01/22 00:37:56;;;;;;;75.63;31.10;;;;;;;-4.33;59.34;99338.59;5050521;28;20028;-74
2021/01/22 00:40:22;;;;;;;66.90;29.67;;;;;;;-4.32;59.16;99324.63;5049392;28;20044;-72
2021/01/22 00:42:47;;;;;;;71.43;30.92;;;;;;;-4.33;59.05;99317.69;5049082;28;20386;-76
2021/01/22 00:45:13;;;;;;;69.60;31.48;;;;;;;-4.65;59.23;99258.47;5048929;28;20028;-75
2021/01/22 00:47:38;;;;;;;67.90;30.38;;;;;;;-4.24;59.48;99316.59;5049130;28;20036;-76
2021/01/22 00:50:04;;;;;;;66.65;29.33;;;;;;;-4.07;58.89;99323.09;5049507;28;20040;-74
2021/01/22 00:52:30;;;;;;;65.70;29.88;;;;;;;-4.04;58.73;99321.25;5049464;28;20555;-68
2021/01/22 00:54:56;;;;;;;67.93;31.38;;;;;;;-4.05;58.24;99323.91;5049451;28;20033;-73
2021/01/22 00:57:21;;;;;;;69.57;30.48;;;;;;;-4.05;58.75;99323.91;5049714;28;20040;-73
2021/01/22 00:59:47;;;;;;;73.47;30.23;;;;;;;-4.04;58.23;99317.78;5049285;28;20044;-72
2021/01/22 01:02:13;;;;;;;72.82;32.17;;;;;;;-4.00;58.77;99322.00;5049013;28;20036;-74
2021/01/22 01:04:38;;;;;;;69.40;30.45;;;;;;;-3.96;58.49;99315.78;5049460;28;20386;-74
2021/01/22 01:07:04;;;;;;;63.53;30.05;;;;;;;-3.90;58.62;99315.59;5053012;28;20033;-71
2021/01/22 01:09:29;;;;;;;64.97;30.05;;;;;;;-3.90;57.97;99320.84;5052569;28;20133;-74
2021/01/22 01:11:55;;;;;;;70.20;30.70;;;;;;;-3.79;57.80;99319.69;5052837;28;20500;-73
2021/01/22 01:14:20;;;;;;;72.13;32.33;;;;;;;-4.30;57.59;99238.34;5053061;28;20087;-74
2021/01/22 01:16:46;;;;;;;73.00;32.75;;;;;;;-3.93;58.22;99318.31;5052610;28;20036;-73
2021/01/22 01:19:11;;;;;;;78.18;33.88;;;;;;;-3.96;58.21;99325.41;5052253;28;20033;-73
2021/01/22 01:21:37;;;;;;;73.55;30.52;;;;;;;-3.92;58.22;99319.19;5052759;28;20120;-73
2021/01/22 01:24:03;;;;;;;70.00;31.80;;;;;;;-4.28;58.65;99257.47;5053811;28;20033;-74
2021/01/22 01:26:28;;;;;;;72.40;32.38;;;;;;;-3.90;58.40;99310.38;5052426;28;20124;-74
2021/01/22 01:28:54;;;;;;;70.97;31.20;;;;;;;-3.82;57.83;99330.22;5052614;28;20511;-75
2021/01/22 01:31:19;;;;;;;71.95;32.90;;;;;;;-4.22;58.43;99259.00;5052692;28;20064;-75
2021/01/22 01:33:45;;;;;;;69.32;31.75;;;;;;;-3.80;57.72;99325.81;5052606;28;20131;-74
2021/01/22 01:36:10;;;;;;;68.72;31.70;;;;;;;-3.76;57.77;99328.28;5052414;28;20393;-75
2021/01/22 01:38:36;;;;;;;72.43;32.05;;;;;;;-3.74;58.04;99341.31;5052292;28;20116;-74
2021/01/22 01:41:02;;;;;;;73.68;33.00;;;;;;;-3.77;57.83;99320.47;5052838;28;20037;-75
2021/01/22 01:43:27;;;;;;;71.75;31.67;;;;;;;-3.78;57.77;99344.94;5050774;28;20040;-71
2021/01/22 01:45:53;;;;;;;69.10;31.10;;;;;;;-3.94;57.50;99321.81;5051881;28;20512;-77
2021/01/22 01:48:18;;;;;;;76.88;33.10;;;;;;;-3.80;57.65;99338.88;5052220;28;20045;-74
2021/01/22 01:50:44;;;;;;;74.18;33.90;;;;;;;-4.37;57.35;99231.56;5052350;28;20040;-75
2021/01/22 01:53:10;;;;;;;78.38;34.33;;;;;;;-3.76;57.38;99333.50;5061775;28;20404;-74
2021/01/22 01:55:36;;;;;;;78.85;34.42;;;;;;;-3.85;57.44;99325.09;5051785;28;20029;-70
2021/01/22 01:58:04;;;;;;;73.40;31.85;;;;;;;-3.85;57.75;99317.25;5051974;28;20079;-77
2021/01/22 02:00:30;;;;;;;76.35;32.75;;;;;;;-3.94;58.00;99281.75;5052116;28;20523;-77
2021/01/22 02:02:56;;;;;;;73.25;33.80;;;;;;;-3.68;57.53;99299.25;5051762;28;20041;-78
2021/01/22 02:05:22;;;;;;;66.13;26.52;;;;;;;-3.56;57.01;99303.25;5051824;28;20040;-75
2021/01/22 02:07:47;;;;;;;79.93;36.83;;;;;;;-3.76;57.52;99299.50;5051738;28;20040;-76
2021/01/22 02:10:14;;;;;;;79.28;35.35;;;;;;;-3.89;57.53;99304.22;5052106;28;20035;-75
2021/01/22 02:12:40;;;;;;;83.20;37.50;;;;;;;-3.95;58.36;99311.44;5051798;28;20045;-77
2021/01/22 02:15:09;;;;;;;82.22;35.53;;;;;;;-3.93;58.14;99326.16;5051436;28;20504;-76
2021/01/22 02:17:35;;;;;;;73.22;30.58;;;;;;;-4.07;57.96;99282.09;5051348;28;20033;-74
2021/01/22 02:20:25;;;;;;;81.70;37.28;;;;;;;-3.91;58.53;99324.34;5051666;28;20025;-75
2021/01/22 02:22:53;;;;;;;83.05;38.05;;;;;;;-3.98;57.95;99314.97;5051121;28;20127;-75
2021/01/22 02:25:25;;;;;;;83.85;38.25;;;;;;;-3.98;58.26;99301.91;5051260;28;20060;-74
2021/01/22 02:27:52;;;;;;;78.45;33.40;;;;;;;-4.41;57.76;99227.34;5050985;28;20061;-73
2021/01/22 02:30:17;;;;;;;83.82;37.25;;;;;;;-3.90;58.11;99320.00;5050801;28;20045;-75
2021/01/22 02:32:47;;;;;;;79.88;35.58;;;;;;;-3.81;57.79;99314.47;5051073;28;20607;-71
2021/01/22 02:35:14;;;;;;;79.30;35.28;;;;;;;-3.77;57.78;99315.25;5051443;28;20067;-75
2021/01/22 02:37:43;;;;;;;84.35;36.92;;;;;;;-3.84;57.69;99308.50;5053309;28;20064;-73
2021/01/22 02:40:10;;;;;;;75.47;31.55;;;;;;;-3.85;58.33;99309.41;5073003;28;20017;-49
2021/01/22 02:42:38;;;;;;;89.10;36.88;;;;;;;-4.16;58.39;99276.28;5059688;28;20409;-75
2021/01/22 02:45:07;;;;;;;86.35;36.13;;;;;;;-4.00;58.42;99302.84;5051416;28;20037;-75
2021/01/22 02:47:32;;;;;;;75.10;36.05;;;;;;;-4.69;58.83;99199.38;5051113;28;20119;-76
2021/01/22 02:49:58;;;;;;;80.18;36.25;;;;;;;-3.98;58.72;99312.38;5050477;28;20586;-76
2021/01/22 02:52:23;;;;;;;88.68;38.47;;;;;;;-3.87;58.74;99311.19;5051380;28;20159;-78
2021/01/22 02:54:50;;;;;;;86.45;36.33;;;;;;;-3.86;58.55;99315.50;5050963;28;20184;-61
2021/01/22 02:57:33;;;;;;;79.68;35.83;;;;;;;-3.84;59.46;99311.13;5050352;28;20117;-70
2021/01/22 03:00:04;;;;;;;87.13;36.60;;;;;;;-3.80;58.47;99310.97;5051042;28;20166;-73
2021/01/22 03:03:03;;;;;;;85.93;37.45;;;;;;;-3.77;58.55;99315.25;5050752;28;20033;-75
2021/01/22 03:05:31;;;;;;;84.60;36.70;;;;;;;-3.97;58.57;99295.78;5050295;28;20390;-74
2021/01/22 03:08:28;;;;;;;91.72;37.35;;;;;;;-3.77;58.37;99315.25;5052641;28;20047;-74
2021/01/22 03:10:54;;;;;;;94.13;39.20;;;;;;;-3.81;58.34;99295.31;5054890;28;20045;-75
2021/01/22 03:13:22;;;;;;;94.50;40.05;;;;;;;-3.90;58.72;99299.06;5050316;28;20075;-73
2021/01/22 03:15:48;;;;;;;93.32;36.95;;;;;;;-3.79;58.74;99328.38;5050292;28;20401;-74
2021/01/22 03:18:19;;;;;;;97.35;38.80;;;;;;;-3.80;58.53;99326.66;5050987;28;20068;-76
2021/01/22 03:20:48;;;;;;;97.70;38.08;;;;;;;-3.77;59.45;99315.25;5050297;28;20048;-75
2021/01/22 03:23:15;;;;;;;105.32;40.65;;;;;;;-3.76;59.27;99314.34;5050359;28;20071;-75
2021/01/22 03:25:41;;;;;;;99.97;39.58;;;;;;;-3.76;59.12;99306.50;5050891;28;20024;-61
2021/01/22 03:28:09;;;;;;;99.53;39.97;;;;;;;-3.77;59.16;99312.63;5050542;28;20091;-75
2021/01/22 03:30:35;;;;;;;98.45;38.55;;;;;;;-3.65;59.01;99322.72;5050398;28;20504;-75
2021/01/22 03:33:01;;;;;;;99.85;38.63;;;;;;;-3.66;59.26;99317.53;5051783;28;20128;-75
2021/01/22 03:35:27;;;;;;;105.05;38.15;;;;;;;-3.71;59.37;99356.06;5051260;28;20033;-76
2021/01/22 03:37:53;;;;;;;101.72;39.65;;;;;;;-3.88;59.33;99312.94;5050775;28;20028;-75
2021/01/22 03:40:19;;;;;;;99.53;39.17;;;;;;;-3.91;60.09;99320.91;5049855;28;20569;-70
2021/01/22 03:42:48;;;;;;;111.03;42.30;;;;;;;-4.10;60.35;99304.84;5050004;28;20071;-73
2021/01/22 03:45:14;;;;;;;107.30;40.25;;;;;;;-4.06;60.71;99323.03;5050700;28;20506;-75
2021/01/22 03:47:40;;;;;;;118.22;42.95;;;;;;;-3.91;60.48;99334.81;5050785;28;20400;-74
2021/01/22 03:50:06;;;;;;;104.88;40.08;;;;;;;-3.87;60.59;99338.22;5050019;28;20039;-76
2021/01/22 03:52:33;;;;;;;109.90;40.20;;;;;;;-4.04;60.19;99307.31;5049980;28;20044;-75
2021/01/22 03:54:58;;;;;;;113.25;42.55;;;;;;;-3.83;60.76;99345.06;5050418;28;20395;-77
2021/01/22 03:57:24;;;;;;;121.20;43.13;;;;;;;-3.92;60.75;99320.03;5050478;28;20041;-70
2021/01/22 03:59:49;;;;;;;115.82;43.80;;;;;;;-3.80;60.89;99337.13;5049800;28;20045;-73
2021/01/22 04:02:15;;;;;;;115.05;43.30;;;;;;;-3.82;61.01;99328.47;5049519;28;20611;-75
2021/01/22 04:04:40;;;;;;;119.72;43.08;;;;;;;-3.80;60.51;99321.41;5050102;28;20048;-75
2021/01/22 04:07:06;;;;;;;127.53;45.70;;;;;;;-4.21;60.88;99271.22;5050582;28;20045;-79
2021/01/22 04:09:31;;;;;;;119.65;41.00;;;;;;;-3.91;61.14;99329.59;5049625;28;20507;-68
2021/01/22 04:11:57;;;;;;;121.75;44.97;;;;;;;-3.96;61.40;99315.78;5049792;28;20033;-76
2021/01/22 04:14:24;;;;;;;123.47;44.15;;;;;;;-4.25;62.23;99269.56;5050193;28;20076;-76
2021/01/22 04:16:54;;;;;;;122.47;41.03;;;;;;;-3.90;62.15;99315.59;5050154;28;20085;-72
2021/01/22 04:19:19;;;;;;;119.28;42.83;;;;;;;-3.94;61.51;99311.38;5049868;28;20098;-75
2021/01/22 04:21:44;;;;;;;118.80;43.50;;;;;;;-4.18;61.93;99289.41;5050005;28;20071;-72
2021/01/22 04:24:10;;;;;;;132.88;44.20;;;;;;;-4.29;62.07;99271.44;5049970;28;20123;-73
2021/01/22 04:26:35;;;;;;;116.15;40.20;;;;;;;-4.15;61.87;99273.63;5056316;28;20037;-69
2021/01/22 04:29:01;;;;;;;116.75;42.28;;;;;;;-3.77;61.59;99330.94;5050969;28;20061;-72
2021/01/22 04:31:26;;;;;;;118.85;43.22;;;;;;;-3.82;61.91;99317.16;5048899;28;20041;-74
2021/01/22 04:33:52;;;;;;;124.05;43.58;;;;;;;-4.01;62.13;99283.69;5051002;28;20037;-74
2021/01/22 04:36:17;;;;;;;128.18;42.65;;;;;;;-4.05;62.44;99297.75;5049876;28;20120;-72
2021/01/22 04:38:42;;;;;;;106.65;37.28;;;;;;;-3.92;62.25;99327.03;5050779;28;20075;-74
2021/01/22 04:41:08;;;;;;;127.07;46.50;;;;;;;-4.00;62.62;99316.78;5054291;28;20120;-73
2021/01/22 04:43:33;;;;;;;121.28;40.67;;;;;;;-4.06;63.19;99314.34;5059008;28;20056;-75
2021/01/22 04:46:01;;;;;;;129.50;44.22;;;;;;;-4.09;63.27;99310.06;5059707;28;20397;-74
2021/01/22 04:48:29;;;;;;;135.05;44.55;;;;;;;-4.05;63.44;99332.59;5054424;28;20044;-72
2021/01/22 04:50:58;;;;;;;133.50;46.20;;;;;;;-4.58;63.30;99254.81;5053081;28;20094;-72
2021/01/22 04:53:27;;;;;;;133.23;43.00;;;;;;;-4.10;64.15;99308.34;5054477;28;20065;-74
2021/01/22 04:55:55;;;;;;;116.22;39.75;;;;;;;-4.24;63.88;99306.13;5054888;28;20029;-73
2021/01/22 04:58:23;;;;;;;138.77;45.35;;;;;;;-4.22;64.02;99293.88;5053876;28;20047;-74
2021/01/22 05:00:50;;;;;;;140.85;45.47;;;;;;;-4.28;63.86;99283.59;5053595;28;20047;-70
2021/01/22 05:03:18;;;;;;;135.35;43.50;;;;;;;-4.09;64.03;99309.22;5053146;28;20037;-60
2021/01/22 05:05:45;;;;;;;150.75;45.47;;;;;;;-4.11;64.19;99287.47;5052963;28;20028;-73
2021/01/22 05:08:10;;;;;;;143.63;46.13;;;;;;;-4.44;63.57;99228.31;5052955;28;20044;-72
2021/01/22 05:10:36;;;;;;;144.02;46.85;;;;;;;-3.93;63.96;99304.41;5052643;28;20484;-72
2021/01/22 05:13:01;;;;;;;131.00;45.33;;;;;;;-3.88;63.93;99307.72;5055168;28;20037;-73
2021/01/22 05:15:27;;;;;;;136.02;45.38;;;;;;;-3.82;64.06;99311.94;5055181;28;20033;-72
2021/01/22 05:17:58;;;;;;;140.45;46.28;;;;;;;-3.75;64.14;99326.53;5054865;28;20449;-74
2021/01/22 05:20:29;;;;;;;129.68;44.15;;;;;;;-3.68;64.10;99332.44;5055574;28;20155;-72
2021/01/22 05:22:55;;;;;;;140.95;45.08;;;;;;;-3.65;63.73;99343.66;5053760;28;20064;-75
2021/01/22 05:25:21;;;;;;;152.10;45.15;;;;;;;-3.64;63.39;99334.06;5051425;28;20037;-74
2021/01/22 05:27:50;;;;;;;132.35;45.05;;;;;;;-3.64;63.74;99334.06;5052390;28;20064;-72
2021/01/22 05:30:18;;;;;;;129.15;43.05;;;;;;;-3.62;63.77;99330.50;5053095;28;20464;-74
2021/01/22 05:32:43;;;;;;;136.55;41.92;;;;;;;-3.52;63.51;99335.44;5053614;28;20127;-76
2021/01/22 05:35:09;;;;;;;144.70;46.00;;;;;;;-3.54;63.72;99327.63;5052515;28;20055;-74
2021/01/22 05:37:49;;;;;;;144.75;45.00;;;;;;;-3.62;63.93;99304.34;5052038;28;20152;-74
2021/01/22 05:40:16;;;;;;;151.23;44.55;;;;;;;-3.51;63.72;99337.16;5052569;28;20029;-67
2021/01/22 05:42:50;;;;;;;144.05;47.00;;;;;;;-3.51;63.98;99317.06;5053093;28;20032;-71
2021/01/22 05:45:17;;;;;;;138.30;43.65;;;;;;;-3.47;63.57;99317.81;5052575;28;20048;-70
2021/01/22 05:47:43;;;;;;;139.55;45.25;;;;;;;-3.46;63.73;99315.19;5051641;28;20464;-71
2021/01/22 05:50:09;;;;;;;136.40;45.45;;;;;;;-3.41;63.55;99309.78;5051760;28;20088;-74
2021/01/22 05:52:35;;;;;;;133.43;41.05;;;;;;;-3.28;63.30;99312.00;5051990;28;20072;-72
2021/01/22 05:55:18;;;;;;;140.73;44.80;;;;;;;-3.37;64.30;99319.28;5051811;28;20114;-72
2021/01/22 05:57:43;;;;;;;140.68;44.75;;;;;;;-3.40;64.03;99306.25;5051738;28;20396;-72
2021/01/22 06:00:11;;;;;;;152.20;46.75;;;;;;;-3.36;63.28;99315.75;5051975;28;20033;-71
2021/01/22 06:02:37;;;;;;;144.80;44.88;;;;;;;-3.40;63.40;99326.34;5052242;28;20043;-74
2021/01/22 06:05:09;;;;;;;141.85;44.90;;;;;;;-3.35;63.93;99314.84;5051499;28;20025;-72
2021/01/22 06:07:37;;;;;;;152.55;46.20;;;;;;;-3.35;63.81;99312.22;5051476;28;20126;-74
2021/01/22 06:10:20;;;;;;;141.45;45.35;;;;;;;-3.23;64.61;99324.06;5051795;28;20043;-75
2021/01/22 06:12:55;;;;;;;137.90;45.63;;;;;;;-3.15;64.31;99322.94;5052132;28;20044;-73
2021/01/22 06:15:23;;;;;;;145.05;45.60;;;;;;;-3.19;63.63;99296.00;5050225;28;20469;-58
2021/01/22 06:17:53;;;;;;;155.25;47.10;;;;;;;-3.09;63.84;99310.53;5051798;28;20044;-71
2021/01/22 06:20:24;;;;;;;151.07;47.70;;;;;;;-2.99;63.70;99312.81;5051134;28;20033;-72
2021/01/22 06:23:04;;;;;;;153.23;47.50;;;;;;;-2.89;64.10;99306.38;5051401;28;20102;-71
2021/01/22 06:25:30;;;;;;;146.05;46.85;;;;;;;-2.85;63.11;99292.28;5051577;28;20091;-72
2021/01/22 06:27:58;;;;;;;159.77;48.70;;;;;;;-2.79;62.95;99299.91;5051557;28;20136;-71
2021/01/22 06:30:24;;;;;;;145.52;44.97;;;;;;;-2.80;63.42;99305.19;5051425;28;20041;-69
2021/01/22 06:32:50;;;;;;;151.45;47.03;;;;;;;-2.77;62.81;99307.75;5051301;28;20165;-70
2021/01/22 06:35:16;;;;;;;149.35;46.25;;;;;;;-2.78;62.85;99295.50;5050348;28;20094;-70
2021/01/22 06:37:42;;;;;;;160.38;49.53;;;;;;;-2.81;63.25;99306.09;5051598;28;20496;-70
2021/01/22 06:40:08;;;;;;;164.98;48.33;;;;;;;-2.85;63.60;99289.66;5051115;28;20053;-70
2021/01/22 06:42:39;;;;;;;147.57;45.03;;;;;;;-2.64;63.45;99298.53;5051299;28;20064;-73
2021/01/22 06:45:05;;;;;;;153.20;46.05;;;;;;;-2.63;62.49;99281.88;5050858;28;20029;-71
2021/01/22 06:47:31;;;;;;;162.38;49.58;;;;;;;-2.55;62.62;99292.09;5050565;28;20044;-70
2021/01/22 06:49:56;;;;;;;145.68;46.20;;;;;;;-2.64;62.64;99256.59;5050050;28;20041;-70
2021/01/22 06:52:22;;;;;;;158.18;47.03;;;;;;;-2.66;62.69;99260.16;5047262;28;20033;-59
2021/01/22 06:54:57;;;;;;;155.77;49.30;;;;;;;-2.54;62.99;99282.47;5048474;28;20040;-66
2021/01/22 06:57:23;;;;;;;176.32;53.28;;;;;;;-2.77;62.79;99284.16;5048240;28;20037;-56
2021/01/22 06:59:49;;;;;;;164.07;49.97;;;;;;;-2.62;63.60;99301.09;5048666;28;20051;-64
2021/01/22 07:02:32;;;;;;;171.95;49.17;;;;;;;-2.51;63.71;99283.22;5048590;28;20037;-69
2021/01/22 07:05:00;;;;;;;167.20;49.42;;;;;;;-2.47;62.69;99278.75;5050330;28;20028;-67
2021/01/22 07:07:47;;;;;;;166.55;48.75;;;;;;;-2.36;63.12;99292.31;5050824;28;20032;-67
2021/01/22 07:10:14;;;;;;;176.07;49.50;;;;;;;-2.29;62.86;99290.31;5050091;28;20465;-68
2021/01/22 07:12:47;;;;;;;167.27;50.90;;;;;;;-2.51;62.85;99236.03;5050138;28;20036;-68
2021/01/22 07:15:21;;;;;;;163.13;49.85;;;;;;;-2.18;62.96;99272.41;5050213;28;20036;-67
2021/01/22 07:17:53;;;;;;;165.65;49.83;;;;;;;-2.21;62.92;99274.31;5050687;28;20041;-67
2021/01/22 07:20:19;;;;;;;159.50;49.17;;;;;;;-2.23;62.08;99258.63;5050306;28;20067;-68
2021/01/22 07:23:01;;;;;;;170.77;49.35;;;;;;;-2.06;62.89;99283.38;5057557;28;20119;-68
2021/01/22 07:25:48;;;;;;;180.18;53.20;;;;;;;-2.01;62.63;99291.91;5059596;28;20033;-68
2021/01/22 07:28:16;;;;;;;178.15;49.97;;;;;;;-2.00;61.98;99283.13;5059765;28;20067;-67
2021/01/22 07:30:42;;;;;;;160.48;49.25;;;;;;;-2.05;62.74;99285.09;5058533;28;20037;-67
2021/01/22 07:33:27;;;;;;;187.35;52.97;;;;;;;-1.98;62.51;99286.56;5057618;28;20068;-67
2021/01/22 07:36:10;;;;;;;167.15;51.88;;;;;;;-1.91;63.06;99293.31;5059739;28;20393;-63
2021/01/22 07:38:37;;;;;;;167.70;49.55;;;;;;;-1.84;61.82;99298.31;5057956;28;20048;-66
2021/01/22 07:41:03;;;;;;;173.85;52.95;;;;;;;-1.92;62.33;99304.72;5058017;28;20048;-63
2021/01/22 07:43:29;;;;;;;163.32;50.85;;;;;;;-2.20;62.13;99229.66;5059389;28;20101;-67
2021/01/22 07:46:11;;;;;;;170.20;49.97;;;;;;;-1.68;62.28;99293.31;5065902;28;20514;-69
2021/01/22 07:48:37;;;;;;;169.73;51.40;;;;;;;-1.59;62.47;99311.31;5061438;28;20060;-76
2021/01/22 07:51:31;;;;;;;173.52;53.83;;;;;;;-1.51;62.29;99303.16;5064046;28;20055;-66
2021/01/22 07:53:58;;;;;;;178.68;53.28;;;;;;;-1.50;61.83;99300.47;5065799;28;20036;-73
2021/01/22 07:56:35;;;;;;;173.50;52.92;;;;;;;-1.46;62.38;99294.19;5083557;28;20024;-76
2021/01/22 07:59:01;;;;;;;165.70;50.75;;;;;;;-1.34;61.54;99302.47;5079554;28;20036;-66
2021/01/22 08:01:26;;;;;;;171.38;53.50;;;;;;;-1.32;61.88;99305.94;5083833;28;20402;-63
2021/01/22 08:03:52;;;;;;;179.05;52.20;;;;;;;-1.26;61.94;99294.28;5072437;28;20558;-62
2021/01/22 08:06:17;;;;;;;172.45;51.33;;;;;;;-1.60;61.57;99238.75;5084763;28;20488;-63
2021/01/22 08:08:43;;;;;;;174.00;51.17;;;;;;;-1.24;61.33;99282.81;5077163;28;20120;-64
2021/01/22 08:11:19;;;;;;;171.63;52.20;;;;;;;-1.47;62.00;99234.72;5076224;28;20039;-64
2021/01/22 08:13:44;;;;;;;180.50;53.45;;;;;;;-1.28;62.00;99276.00;5085823;28;20403;-63
2021/01/22 08:16:10;;;;;;;180.27;54.47;;;;;;;-1.18;61.94;99279.94;5076702;28;20222;-51
2021/01/22 08:18:43;;;;;;;166.98;52.17;;;;;;;-1.13;61.48;99298.16;5085347;28;20480;-65
2021/01/22 08:21:09;;;;;;;166.88;52.63;;;;;;;-1.14;61.33;99285.06;5085364;28;20062;-75
2021/01/22 08:23:34;;;;;;;190.85;56.20;;;;;;;-1.09;61.57;99290.97;5077447;28;20060;-64
2021/01/22 08:26:01;;;;;;;166.40;49.80;;;;;;;-1.06;62.13;99286.47;5088967;28;20028;-73
2021/01/22 08:28:27;;;;;;;177.10;54.10;;;;;;;-1.04;61.85;99295.13;5078507;28;20134;-73
2021/01/22 08:30:53;;;;;;;182.88;54.63;;;;;;;-1.08;61.80;99283.03;5083127;28;20143;-73
2021/01/22 08:33:18;;;;;;;183.23;55.35;;;;;;;-1.05;62.22;99282.91;5086129;28;20043;-78
2021/01/22 08:35:44;;;;;;;186.73;55.28;;;;;;;-1.10;61.49;99271.75;5075877;28;20071;-70
2021/01/22 08:38:12;;;;;;;187.00;56.33;;;;;;;-0.96;61.59;99267.69;5088729;28;20024;-71
2021/01/22 08:40:44;;;;;;;190.93;56.30;;;;;;;-0.87;61.55;99289.16;5080531;28;20024;-69
2021/01/22 08:43:12;;;;;;;194.57;57.30;;;;;;;-0.88;61.21;99291.88;5079974;28;20043;-67
2021/01/22 08:45:39;;;;;;;194.85;57.42;;;;;;;-0.82;61.90;99278.47;5088019;28;20024;-68
2021/01/22 08:48:05;;;;;;;190.20;56.15;;;;;;;-0.82;61.45;99267.94;5065777;28;20055;-64
2021/01/22 08:50:31;;;;;;;208.90;57.53;;;;;;;-0.67;60.94;99282.22;5068923;28;20492;-73
2021/01/22 08:53:03;;;;;;;187.93;57.95;;;;;;;-0.65;61.27;99279.53;5083271;28;20039;-73
2021/01/22 08:55:28;;;;;;;182.32;56.55;;;;;;;-0.65;61.20;99284.78;5076949;28;20036;-77
2021/01/22 08:58:01;;;;;;;192.52;59.03;;;;;;;-0.58;61.62;99280.97;5088614;28;20089;-76
2021/01/22 09:00:27;;;;;;;190.93;58.08;;;;;;;-0.55;61.04;99280.81;5078178;28;20040;-67
2021/01/22 09:02:53;;;;;;;191.07;58.25;;;;;;;-0.61;61.25;99275.84;5082468;28;20040;-67
2021/01/22 09:05:18;;;;;;;187.95;56.72;;;;;;;-0.66;61.11;99251.53;5086044;28;20321;-66
2021/01/22 09:07:45;;;;;;;182.55;56.10;;;;;;;-0.73;61.21;99241.25;5075139;28;20036;-69
2021/01/22 09:10:28;;;;;;;173.65;55.13;;;;;;;-0.40;61.41;99262.69;5088278;28;20082;-74
2021/01/22 09:12:54;;;;;;;188.95;56.35;;;;;;;-0.33;61.06;99264.09;5082928;28;20036;-73
2021/01/22 09:15:20;;;;;;;186.40;58.05;;;;;;;-0.22;60.88;99268.88;5079244;28;20039;-73
2021/01/22 09:17:49;;;;;;;192.73;58.20;;;;;;;-0.28;60.65;99245.50;5088415;28;20051;-71
2021/01/22 09:20:19;;;;;;;196.45;59.08;;;;;;;-0.10;61.07;99270.09;5077018;28;20406;-74
2021/01/22 09:22:48;;;;;;;184.15;59.08;;;;;;;-0.31;60.69;99235.94;5084115;28;20082;-76
2021/01/22 09:25:23;;;;;;;183.13;57.85;;;;;;;0.04;60.70;99285.25;5084567;28;20035;-68
2021/01/22 09:27:49;;;;;;;;;;;;;;;0.25;59.81;99270.25;5075210;28;20544;-69
2021/01/22 09:30:16;;;;;;;188.73;53.85;;;;;;;0.25;60.06;99270.25;5087409;28;19920;-66
2021/01/22 09:32:47;;;;;;;192.27;58.88;;;;;;;0.25;59.86;99276.38;5069965;28;20495;-67
2021/01/22 09:35:13;;;;;;;180.35;57.00;;;;;;;0.30;60.24;99268.25;5073660;28;20436;-68
2021/01/22 09:37:39;;;;;;;183.48;57.47;;;;;;;0.14;60.31;99236.53;5072185;28;20040;-66
2021/01/22 09:40:06;;;;;;;170.88;53.35;;;;;;;0.40;59.86;99268.69;5089470;28;20028;-75
2021/01/22 09:42:32;;;;;;;176.82;54.97;;;;;;;0.34;59.97;99268.94;5087011;28;20619;-63
2021/01/22 09:44:57;;;;;;;170.75;55.10;;;;;;;0.28;60.50;99259.59;5082254;28;20068;-63
2021/01/22 09:47:23;;;;;;;183.93;56.65;;;;;;;0.28;60.39;99264.84;5072608;28;20115;-67
2021/01/22 09:49:48;;;;;;;178.63;55.72;;;;;;;0.34;60.49;99264.56;5073794;28;20092;-65
2021/01/22 09:52:14;;;;;;;177.20;55.97;;;;;;;0.48;60.31;99249.84;5073016;28;20033;-66
2021/01/22 09:54:41;;;;;;;157.52;52.05;;;;;;;0.59;59.99;99252.84;5072431;28;20535;-65
2021/01/22 09:57:07;;;;;;;161.05;54.30;;;;;;;0.25;60.00;99196.53;5072041;28;20036;-64
2021/01/22 09:59:32;;;;;;;170.45;55.45;;;;;;;0.59;59.90;99215.09;5072834;28;20077;-64
2021/01/22 10:01:58;;;;;;;167.02;54.08;;;;;;;0.84;59.62;99247.22;5074032;28;20036;-61
2021/01/22 10:04:23;;;;;;;172.23;53.70;;;;;;;0.96;59.80;99244.88;5072738;28;20024;-65
2021/01/22 10:06:49;;;;;;;157.20;53.50;;;;;;;0.89;59.45;99223.25;5071864;28;20024;-62
2021/01/22 10:09:14;;;;;;;160.10;53.58;;;;;;;1.02;59.71;99239.31;5071885;28;20043;-59
2021/01/22 10:11:40;;;;;;;169.35;53.25;;;;;;;1.05;59.48;99238.31;5073643;28;20037;-67
2021/01/22 10:14:06;;;;;;;165.13;54.40;;;;;;;1.05;59.57;99230.41;5071556;28;20020;-75
2021/01/22 10:16:33;;;;;;;157.52;51.60;;;;;;;1.05;59.68;99231.22;5081320;28;20161;-72
2021/01/22 10:18:58;;;;;;;156.75;52.75;;;;;;;1.12;59.39;99231.78;5081424;28;20110;-71
2021/01/22 10:21:24;;;;;;;161.32;53.42;;;;;;;1.18;59.97;99226.19;5077115;28;20119;-74
2021/01/22 10:23:51;;;;;;;159.05;53.72;;;;;;;0.26;59.53;99080.59;5087288;28;20032;-72
2021/01/22 10:26:17;;;;;;;169.93;54.92;;;;;;;1.39;59.30;99215.44;5057846;28;20441;-79
2021/01/22 10:28:43;;;;;;;157.25;52.75;;;;;;;1.31;59.07;99199.19;5082605;28;20049;-75
2021/01/22 10:31:09;;;;;;;168.48;54.53;;;;;;;1.45;58.91;99217.78;5082653;28;20047;-73
2021/01/22 10:33:35;;;;;;;152.90;54.05;;;;;;;1.42;59.51;99194.19;5074784;28;20189;-79
2021/01/22 10:36:01;;;;;;;152.85;52.55;;;;;;;1.53;59.08;99218.22;5087219;28;20534;-73
2021/01/22 10:38:27;;;;;;;161.45;52.13;;;;;;;1.48;58.95;99196.53;5076867;28;20031;-79
2021/01/22 10:40:56;;;;;;;163.32;51.33;;;;;;;1.52;58.96;99197.19;5079679;28;20032;-63
2021/01/22 10:43:23;;;;;;;154.35;53.15;;;;;;;1.58;59.22;99210.91;5072962;28;20035;-72
2021/01/22 10:45:49;;;;;;;149.27;51.38;;;;;;;1.53;59.08;99202.41;5070444;28;20036;-70
2021/01/22 10:48:15;;;;;;;155.65;53.58;;;;;;;1.07;58.57;99131.00;5068632;28;20221;-74
2021/01/22 10:50:40;;;;;;;160.88;56.47;;;;;;;1.55;58.73;99216.34;5077541;28;20122;-71
2021/01/22 10:53:06;;;;;;;155.05;54.42;;;;;;;1.58;59.26;99210.91;5081574;28;20032;-66
2021/01/22 10:55:35;;;;;;;146.35;51.90;;;;;;;1.22;58.89;99134.59;5083649;28;20080;-66
2021/01/22 10:58:01;;;;;;;160.32;54.58;;;;;;;1.60;59.60;99196.78;5073107;28;20028;-72
2021/01/22 11:00:26;;;;;;;162.25;56.13;;;;;;;1.79;59.37;99212.47;5072185;28;20032;-69
2021/01/22 11:02:52;;;;;;;151.27;51.58;;;;;;;1.84;58.94;99195.44;5073046;28;20404;-72
2021/01/22 11:05:17;;;;;;;151.77;52.95;;;;;;;1.81;58.98;99185.06;5072396;28;20499;-71
2021/01/22 11:07:43;;;;;;;150.88;54.63;;;;;;;2.02;59.08;99211.22;5076211;28;20031;-69
2021/01/22 11:10:09;;;;;;;151.70;54.00;;;;;;;2.15;58.89;99199.03;5073527;28;20039;-67
2021/01/22 11:12:34;;;;;;;152.82;54.67;;;;;;;2.20;58.28;99196.13;5072433;28;20060;-64
2021/01/22 11:15:00;;;;;;;154.63;54.60;;;;;;;2.23;58.30;99195.13;5070426;28;20037;-65
2021/01/22 11:17:25;;;;;;;154.18;53.38;;;;;;;2.09;58.18;99170.34;5074594;28;20549;-66